KERO2: Robert S. Kerr Lock & Dam & Reservoir (L&D 15)

Data processed at Tue 09Mar2021 04:17


All information presented herein is the property of the government of the United States of America and may be revised or deleted at any time without prior notice.
Dissemination of this information without the expressed written consent of the Public Affairs Office, Tulsa District U.S. Army Corps of Engineers is strictly prohibited.
These data are gathered electronically and, as presented, have not undergone any form of quality control. These data are not guaranteed to be valid or correct.
Go to home page.
Go to station list.

Upstream stations:

Downstream station:
Previous Day
Next Day
Current Day
    
SHEF ID:       KERO2     RS Kerr LD15
STATION TYPE:  NAVIGATION LOCK
Navigation Pool:  Bottom =   458.00, Top =   460.00

               PRECIP ELEVATION   STORAGE   TW-ELEV    INFLOW   RELEASE  AIR-TEMP  WIND-DIRWIND-SPEED REL-HUMID SOLAR-RAD   VOLTAGE  BAT-LOAD
                   in        ft     ac-ft        ft       cfs       cfs         F       deg       mph         %      W/m2      volt      volt
              Ccp-Rev   Ccp-Rev   Ccp-Rev   Ccp-Rev  Rev-Regi  Rev-Regi   Ccp-Rev   Ccp-Rev   Ccp-Rev   Ccp-Rev   Ccp-Rev   Ccp-Rev   Ccp-Rev
(US/Central)
03/08 00:00      0.00    459.66    511036    411.99      4454      7722     47.93     54.20      1.07     47.45      0.00     13.39     13.12
03/08 01:00      0.00    459.66    511036    411.99      3415      7320     44.85     34.20      0.49     56.49      0.00     13.38     13.12
03/08 02:00      0.00    459.65    510605    411.99      3095      7320     41.88     29.10      2.38     66.62      0.00     13.39     13.12
03/08 03:00      0.00    459.59    508019    411.98      1298      7320     41.45     19.40      2.26     71.20      0.00     13.38     13.12
03/08 04:00      0.00    459.57    507157    412.00       565      7320     40.69     18.60      3.51     76.83      0.00     13.38     13.07
03/08 05:00      0.00    459.58    507588    411.99      1936      7320     41.34     11.80      2.91     76.16      0.00     13.38     13.12
03/08 06:00      0.00    459.55    506295    411.99      2391      7180     40.59     21.80      2.46     79.33      0.00     13.40     13.12
03/08 07:00      0.00    459.56    506726    411.94      2391      3410     40.91      6.60      1.63     79.88      3.00     13.45     13.12
03/08 08:00      0.00    459.56    506726    411.59      3087         0     44.20     10.30      1.12     77.38    133.00     13.38     13.12
03/08 09:00      0.00    459.54    505864    412.11      9720         0     49.48     45.40      1.05     72.55    368.00     13.38     13.12
03/08 10:00      0.00    459.55    506295    411.77      8066         0     55.53     31.20      0.87     63.58    573.00     13.37     13.12
03/08 11:00      0.00    459.65    510605    411.95      7610         0     62.46     28.20      0.76     53.68    758.00     13.38     13.12
03/08 12:00      0.00    459.64    510174    411.89      8261         0     63.77    173.60      7.04     41.59    876.00     13.38     13.12
03/08 13:00      0.00    459.64    510174    411.81      8866         0     65.43    175.70      8.00     35.18    915.00      ----      ----
03/08 14:00      0.00    459.65    510605    411.91      3253         0     67.41    177.10      8.60     32.12    894.00     13.38     13.12
03/08 15:00      0.00    459.67    511467    411.82      4104         0     67.95    168.90      4.92     29.86    754.00     13.40     13.12
03/08 16:00      0.00    459.69    512329    411.90      4412      6820     66.96    138.40      3.03     30.90    443.00     13.39     13.12
03/08 17:00      0.00    459.69    512329    412.29      3761     15100     65.97    104.20      4.11     33.47    209.00     13.38     13.12
03/08 18:00      0.00    459.60    508450    412.94      2460     15400     65.53    116.40      3.02     32.55    146.00     13.41     13.12
03/08 19:00      0.00    459.64    510174    412.78      1159      7320     64.11    155.60      2.89     32.98      5.00     13.37     13.12
03/08 20:00      0.00    459.62    509312    412.04       308      3410     62.78    151.40      2.94     33.59      0.00     13.38     13.12
03/08 21:00      0.00    459.60    508450    411.66         0      3410     53.89     76.70      2.50     44.71      0.00     13.38     13.12
03/08 22:00      ----      ----      ----      ----      ----      3410      ----      ----      ----      ----      ----      ----      ----
03/08 23:00      ----      ----      ----      ----      ----      ----      ----      ----      ----      ----      ----      ----      ----